sensor_id;sensor_type;location;lat;lon;timestamp;temperature;humidity
8338;DHT22;4206;48.634;9.516;2022-09-09T00:01:08;13.30;99.90
8338;DHT22;4206;48.634;9.516;2022-09-09T00:03:44;13.40;99.90
8338;DHT22;4206;48.634;9.516;2022-09-09T00:06:28;13.40;99.90
8338;DHT22;4206;48.634;9.516;2022-09-09T00:09:04;13.40;99.90
8338;DHT22;4206;48.634;9.516;2022-09-09T00:11:40;13.40;99.90
8338;DHT22;4206;48.634;9.516;2022-09-09T00:14:25;13.40;99.90
8338;DHT22;4206;48.634;9.516;2022-09-09T00:17:00;13.40;99.90
8338;DHT22;4206;48.634;9.516;2022-09-09T00:19:46;13.40;99.90
8338;DHT22;4206;48.634;9.516;2022-09-09T00:22:19;13.50;99.90
8338;DHT22;4206;48.634;9.516;2022-09-09T00:29:53;13.50;99.90
8338;DHT22;4206;48.634;9.516;2022-09-09T00:32:20;13.50;99.90
8338;DHT22;4206;48.634;9.516;2022-09-09T00:34:58;13.40;99.90
8338;DHT22;4206;48.634;9.516;2022-09-09T00:37:26;13.40;99.90
8338;DHT22;4206;48.634;9.516;2022-09-09T00:39:55;13.40;99.90
8338;DHT22;4206;48.634;9.516;2022-09-09T00:42:25;13.40;99.90
8338;DHT22;4206;48.634;9.516;2022-09-09T00:45:01;13.40;99.90
8338;DHT22;4206;48.634;9.516;2022-09-09T00:53:11;13.30;99.90
8338;DHT22;4206;48.634;9.516;2022-09-09T00:58:23;13.30;99.90
8338;DHT22;4206;48.634;9.516;2022-09-09T01:01:05;13.20;99.90
8338;DHT22;4206;48.634;9.516;2022-09-09T01:03:34;13.20;99.90
8338;DHT22;4206;48.634;9.516;2022-09-09T01:11:26;13.30;99.90
8338;DHT22;4206;48.634;9.516;2022-09-09T01:14:14;13.30;99.90
8338;DHT22;4206;48.634;9.516;2022-09-09T01:16:44;13.20;99.90
8338;DHT22;4206;48.634;9.516;2022-09-09T01:19:18;13.20;99.90
8338;DHT22;4206;48.634;9.516;2022-09-09T01:22:11;13.10;99.90
8338;DHT22;4206;48.634;9.516;2022-09-09T01:27:38;13.00;99.90
8338;DHT22;4206;48.634;9.516;2022-09-09T01:30:11;13.00;99.90
8338;DHT22;4206;48.634;9.516;2022-09-09T01:35:14;13.00;99.90
8338;DHT22;4206;48.634;9.516;2022-09-09T01:37:40;13.00;99.90
8338;DHT22;4206;48.634;9.516;2022-09-09T01:40:07;12.90;99.90
8338;DHT22;4206;48.634;9.516;2022-09-09T01:42:33;12.90;99.90
8338;DHT22;4206;48.634;9.516;2022-09-09T01:44:58;12.80;99.90
8338;DHT22;4206;48.634;9.516;2022-09-09T01:47:24;12.80;99.90
8338;DHT22;4206;48.634;9.516;2022-09-09T01:49:50;12.70;99.90
8338;DHT22;4206;48.634;9.516;2022-09-09T01:52:16;12.70;99.90
8338;DHT22;4206;48.634;9.516;2022-09-09T01:54:41;12.60;99.90
8338;DHT22;4206;48.634;9.516;2022-09-09T01:57:25;12.60;99.90
8338;DHT22;4206;48.634;9.516;2022-09-09T02:05:36;12.60;99.90
8338;DHT22;4206;48.634;9.516;2022-09-09T02:08:07;12.50;99.90
8338;DHT22;4206;48.634;9.516;2022-09-09T02:13:05;12.50;99.90
8338;DHT22;4206;48.634;9.516;2022-09-09T02:18:25;12.30;99.90
8338;DHT22;4206;48.634;9.516;2022-09-09T02:20:53;12.40;99.90
8338;DHT22;4206;48.634;9.516;2022-09-09T02:23:19;12.40;99.90
8338;DHT22;4206;48.634;9.516;2022-09-09T02:25:48;12.30;99.90
8338;DHT22;4206;48.634;9.516;2022-09-09T02:28:18;12.30;99.90
8338;DHT22;4206;48.634;9.516;2022-09-09T02:30:48;12.20;99.90
8338;DHT22;4206;48.634;9.516;2022-09-09T02:33:22;12.20;99.90
8338;DHT22;4206;48.634;9.516;2022-09-09T02:35:51;12.30;99.90
8338;DHT22;4206;48.634;9.516;2022-09-09T02:38:17;12.40;99.90
8338;DHT22;4206;48.634;9.516;2022-09-09T02:40:45;12.30;99.90
8338;DHT22;4206;48.634;9.516;2022-09-09T02:43:11;12.30;99.90
8338;DHT22;4206;48.634;9.516;2022-09-09T02:45:43;12.30;99.90
8338;DHT22;4206;48.634;9.516;2022-09-09T02:48:14;12.30;99.90
8338;DHT22;4206;48.634;9.516;2022-09-09T02:50:54;12.30;99.90
8338;DHT22;4206;48.634;9.516;2022-09-09T02:53:27;12.30;99.90
8338;DHT22;4206;48.634;9.516;2022-09-09T02:56:04;12.40;99.90
8338;DHT22;4206;48.634;9.516;2022-09-09T02:58:31;12.40;99.90
8338;DHT22;4206;48.634;9.516;2022-09-09T03:00:57;12.40;99.90
8338;DHT22;4206;48.634;9.516;2022-09-09T03:03:23;12.50;99.90
8338;DHT22;4206;48.634;9.516;2022-09-09T03:05:49;12.70;99.90
8338;DHT22;4206;48.634;9.516;2022-09-09T03:08:16;12.70;99.90
8338;DHT22;4206;48.634;9.516;2022-09-09T03:10:42;12.80;99.90
8338;DHT22;4206;48.634;9.516;2022-09-09T03:13:08;12.80;99.90
8338;DHT22;4206;48.634;9.516;2022-09-09T03:15:33;12.80;99.90
8338;DHT22;4206;48.634;9.516;2022-09-09T03:17:59;12.80;99.90
8338;DHT22;4206;48.634;9.516;2022-09-09T03:20:27;12.80;99.90
8338;DHT22;4206;48.634;9.516;2022-09-09T03:22:54;12.80;99.90
8338;DHT22;4206;48.634;9.516;2022-09-09T03:25:20;12.70;99.90
8338;DHT22;4206;48.634;9.516;2022-09-09T03:27:49;12.70;99.90
8338;DHT22;4206;48.634;9.516;2022-09-09T03:30:15;12.70;99.90
8338;DHT22;4206;48.634;9.516;2022-09-09T03:32:41;12.70;99.90
8338;DHT22;4206;48.634;9.516;2022-09-09T03:35:07;12.70;99.90
8338;DHT22;4206;48.634;9.516;2022-09-09T03:37:33;12.70;99.90
8338;DHT22;4206;48.634;9.516;2022-09-09T03:39:59;12.80;99.90
8338;DHT22;4206;48.634;9.516;2022-09-09T03:42:25;12.70;99.90
8338;DHT22;4206;48.634;9.516;2022-09-09T03:44:51;12.70;99.90
8338;DHT22;4206;48.634;9.516;2022-09-09T03:47:20;12.70;99.90
8338;DHT22;4206;48.634;9.516;2022-09-09T03:49:47;12.80;99.90
8338;DHT22;4206;48.634;9.516;2022-09-09T03:52:14;12.80;99.90
8338;DHT22;4206;48.634;9.516;2022-09-09T03:54:40;12.90;99.90
8338;DHT22;4206;48.634;9.516;2022-09-09T03:57:06;12.90;99.90
8338;DHT22;4206;48.634;9.516;2022-09-09T03:59:32;13.00;99.90
8338;DHT22;4206;48.634;9.516;2022-09-09T04:01:58;13.00;99.90
8338;DHT22;4206;48.634;9.516;2022-09-09T04:04:25;13.00;99.90
8338;DHT22;4206;48.634;9.516;2022-09-09T04:06:52;13.00;99.90
8338;DHT22;4206;48.634;9.516;2022-09-09T04:09:18;13.10;99.90
8338;DHT22;4206;48.634;9.516;2022-09-09T04:11:43;13.10;99.90
8338;DHT22;4206;48.634;9.516;2022-09-09T04:14:09;13.20;99.90
8338;DHT22;4206;48.634;9.516;2022-09-09T04:16:34;13.30;99.90
8338;DHT22;4206;48.634;9.516;2022-09-09T04:19:04;13.40;99.90
8338;DHT22;4206;48.634;9.516;2022-09-09T04:21:30;13.40;99.90
8338;DHT22;4206;48.634;9.516;2022-09-09T04:23:56;13.50;99.90
8338;DHT22;4206;48.634;9.516;2022-09-09T04:26:22;13.50;99.90
8338;DHT22;4206;48.634;9.516;2022-09-09T04:28:48;13.50;99.90
8338;DHT22;4206;48.634;9.516;2022-09-09T04:31:17;13.40;99.90
8338;DHT22;4206;48.634;9.516;2022-09-09T04:33:43;13.40;99.90
8338;DHT22;4206;48.634;9.516;2022-09-09T04:36:09;13.40;99.90
8338;DHT22;4206;48.634;9.516;2022-09-09T04:38:35;13.30;99.90
8338;DHT22;4206;48.634;9.516;2022-09-09T04:41:01;13.20;99.90
8338;DHT22;4206;48.634;9.516;2022-09-09T04:43:27;13.20;99.90
8338;DHT22;4206;48.634;9.516;2022-09-09T04:45:53;13.20;99.90
8338;DHT22;4206;48.634;9.516;2022-09-09T04:48:20;13.10;99.90
8338;DHT22;4206;48.634;9.516;2022-09-09T04:50:55;13.10;99.90
8338;DHT22;4206;48.634;9.516;2022-09-09T04:53:21;13.10;99.90
8338;DHT22;4206;48.634;9.516;2022-09-09T04:55:47;13.10;99.90
8338;DHT22;4206;48.634;9.516;2022-09-09T04:58:14;13.10;99.90
8338;DHT22;4206;48.634;9.516;2022-09-09T05:00:40;13.10;99.90
8338;DHT22;4206;48.634;9.516;2022-09-09T05:03:07;13.10;99.90
8338;DHT22;4206;48.634;9.516;2022-09-09T05:05:34;13.20;99.90
8338;DHT22;4206;48.634;9.516;2022-09-09T05:08:03;13.20;99.90
8338;DHT22;4206;48.634;9.516;2022-09-09T05:10:29;13.20;99.90
8338;DHT22;4206;48.634;9.516;2022-09-09T05:12:55;13.20;99.90
8338;DHT22;4206;48.634;9.516;2022-09-09T05:15:21;13.20;99.90
8338;DHT22;4206;48.634;9.516;2022-09-09T05:17:47;13.20;99.90
8338;DHT22;4206;48.634;9.516;2022-09-09T05:20:13;13.30;99.90
8338;DHT22;4206;48.634;9.516;2022-09-09T05:22:38;13.30;99.90
8338;DHT22;4206;48.634;9.516;2022-09-09T05:25:04;13.40;99.90
8338;DHT22;4206;48.634;9.516;2022-09-09T05:27:30;13.40;99.90
8338;DHT22;4206;48.634;9.516;2022-09-09T05:29:57;13.50;99.90
8338;DHT22;4206;48.634;9.516;2022-09-09T05:32:23;13.50;99.90
8338;DHT22;4206;48.634;9.516;2022-09-09T05:34:49;13.60;99.90
8338;DHT22;4206;48.634;9.516;2022-09-09T05:37:15;13.70;99.90
8338;DHT22;4206;48.634;9.516;2022-09-09T05:39:42;13.80;99.90
8338;DHT22;4206;48.634;9.516;2022-09-09T05:42:07;13.90;99.90
8338;DHT22;4206;48.634;9.516;2022-09-09T05:44:33;13.90;99.90
8338;DHT22;4206;48.634;9.516;2022-09-09T05:47:00;14.10;99.90
8338;DHT22;4206;48.634;9.516;2022-09-09T05:49:25;14.30;99.90
8338;DHT22;4206;48.634;9.516;2022-09-09T05:51:51;14.20;99.90
8338;DHT22;4206;48.634;9.516;2022-09-09T05:54:17;14.20;99.90
8338;DHT22;4206;48.634;9.516;2022-09-09T05:56:43;14.20;99.90
8338;DHT22;4206;48.634;9.516;2022-09-09T05:59:08;14.30;99.90
8338;DHT22;4206;48.634;9.516;2022-09-09T06:01:36;14.40;99.90
8338;DHT22;4206;48.634;9.516;2022-09-09T06:04:07;14.50;99.90
8338;DHT22;4206;48.634;9.516;2022-09-09T06:06:36;14.60;99.90
8338;DHT22;4206;48.634;9.516;2022-09-09T06:09:03;14.70;99.90
8338;DHT22;4206;48.634;9.516;2022-09-09T06:11:32;14.70;99.90
8338;DHT22;4206;48.634;9.516;2022-09-09T06:13:59;14.70;99.90
8338;DHT22;4206;48.634;9.516;2022-09-09T06:16:27;14.70;99.90
8338;DHT22;4206;48.634;9.516;2022-09-09T06:18:54;14.80;99.90
8338;DHT22;4206;48.634;9.516;2022-09-09T06:21:21;14.90;99.90
8338;DHT22;4206;48.634;9.516;2022-09-09T06:23:47;15.10;99.90
8338;DHT22;4206;48.634;9.516;2022-09-09T06:26:21;15.40;99.90
8338;DHT22;4206;48.634;9.516;2022-09-09T06:28:49;15.50;99.90
8338;DHT22;4206;48.634;9.516;2022-09-09T06:31:17;16.00;99.90
8338;DHT22;4206;48.634;9.516;2022-09-09T06:33:43;16.10;99.90
8338;DHT22;4206;48.634;9.516;2022-09-09T06:36:13;16.30;99.90
8338;DHT22;4206;48.634;9.516;2022-09-09T06:38:41;16.70;99.90
8338;DHT22;4206;48.634;9.516;2022-09-09T06:41:09;17.10;99.90
8338;DHT22;4206;48.634;9.516;2022-09-09T06:43:35;17.40;99.90
8338;DHT22;4206;48.634;9.516;2022-09-09T06:46:02;17.30;99.90
8338;DHT22;4206;48.634;9.516;2022-09-09T06:48:28;17.30;99.90
8338;DHT22;4206;48.634;9.516;2022-09-09T06:51:10;17.30;99.90
8338;DHT22;4206;48.634;9.516;2022-09-09T06:53:37;17.40;99.90
8338;DHT22;4206;48.634;9.516;2022-09-09T06:58:37;17.20;99.90
8338;DHT22;4206;48.634;9.516;2022-09-09T07:01:04;17.30;99.90
8338;DHT22;4206;48.634;9.516;2022-09-09T07:03:31;17.60;99.90
8338;DHT22;4206;48.634;9.516;2022-09-09T07:05:57;17.50;99.90
8338;DHT22;4206;48.634;9.516;2022-09-09T07:08:23;17.40;99.90
8338;DHT22;4206;48.634;9.516;2022-09-09T07:10:51;17.50;99.90
8338;DHT22;4206;48.634;9.516;2022-09-09T07:13:26;17.60;99.90
8338;DHT22;4206;48.634;9.516;2022-09-09T07:15:52;17.90;99.90
8338;DHT22;4206;48.634;9.516;2022-09-09T07:18:19;18.00;99.90
8338;DHT22;4206;48.634;9.516;2022-09-09T07:21:01;18.00;99.90
8338;DHT22;4206;48.634;9.516;2022-09-09T07:23:28;18.30;99.90
8338;DHT22;4206;48.634;9.516;2022-09-09T07:25:53;18.20;99.90
8338;DHT22;4206;48.634;9.516;2022-09-09T07:28:21;18.20;99.90
8338;DHT22;4206;48.634;9.516;2022-09-09T07:30:56;18.30;99.90
8338;DHT22;4206;48.634;9.516;2022-09-09T07:33:22;18.30;99.90
8338;DHT22;4206;48.634;9.516;2022-09-09T07:35:48;18.60;99.90
8338;DHT22;4206;48.634;9.516;2022-09-09T07:38:14;18.70;99.90
8338;DHT22;4206;48.634;9.516;2022-09-09T07:40:40;18.70;99.90
8338;DHT22;4206;48.634;9.516;2022-09-09T07:43:06;18.70;99.90
8338;DHT22;4206;48.634;9.516;2022-09-09T07:45:34;19.00;99.90
8338;DHT22;4206;48.634;9.516;2022-09-09T07:48:01;19.30;99.90
8338;DHT22;4206;48.634;9.516;2022-09-09T07:50:27;19.70;99.90
8338;DHT22;4206;48.634;9.516;2022-09-09T07:52:53;20.20;99.90
8338;DHT22;4206;48.634;9.516;2022-09-09T07:55:21;20.30;99.90
8338;DHT22;4206;48.634;9.516;2022-09-09T07:57:50;20.40;99.90
8338;DHT22;4206;48.634;9.516;2022-09-09T08:00:16;21.20;99.90
8338;DHT22;4206;48.634;9.516;2022-09-09T08:02:43;21.70;99.90
8338;DHT22;4206;48.634;9.516;2022-09-09T08:05:09;21.50;99.90
8338;DHT22;4206;48.634;9.516;2022-09-09T08:07:35;20.90;99.90
8338;DHT22;4206;48.634;9.516;2022-09-09T08:10:01;21.10;99.90
8338;DHT22;4206;48.634;9.516;2022-09-09T08:12:27;21.40;99.90
8338;DHT22;4206;48.634;9.516;2022-09-09T08:14:53;21.60;99.90
8338;DHT22;4206;48.634;9.516;2022-09-09T08:17:19;21.70;99.90
8338;DHT22;4206;48.634;9.516;2022-09-09T08:19:45;22.50;99.90
8338;DHT22;4206;48.634;9.516;2022-09-09T08:22:11;22.90;99.90
8338;DHT22;4206;48.634;9.516;2022-09-09T08:24:37;23.00;99.90
8338;DHT22;4206;48.634;9.516;2022-09-09T08:27:02;23.00;99.90
8338;DHT22;4206;48.634;9.516;2022-09-09T08:29:28;24.00;99.90
8338;DHT22;4206;48.634;9.516;2022-09-09T08:31:56;23.90;99.90
8338;DHT22;4206;48.634;9.516;2022-09-09T08:34:24;24.80;99.90
8338;DHT22;4206;48.634;9.516;2022-09-09T08:36:53;24.10;99.90
8338;DHT22;4206;48.634;9.516;2022-09-09T08:39:20;23.80;99.90
8338;DHT22;4206;48.634;9.516;2022-09-09T08:55:52;21.60;99.90
8338;DHT22;4206;48.634;9.516;2022-09-09T08:58:23;21.60;99.90
8338;DHT22;4206;48.634;9.516;2022-09-09T09:03:40;21.70;99.90
8338;DHT22;4206;48.634;9.516;2022-09-09T09:09:02;21.80;99.90
8338;DHT22;4206;48.634;9.516;2022-09-09T09:14:30;21.70;99.90
8338;DHT22;4206;48.634;9.516;2022-09-09T09:19:28;22.30;99.90
8338;DHT22;4206;48.634;9.516;2022-09-09T09:22:14;22.40;99.90
8338;DHT22;4206;48.634;9.516;2022-09-09T09:27:32;21.80;99.90
8338;DHT22;4206;48.634;9.516;2022-09-09T09:30:00;21.50;99.90
8338;DHT22;4206;48.634;9.516;2022-09-09T09:32:30;21.20;99.90
8338;DHT22;4206;48.634;9.516;2022-09-09T09:34:58;21.80;99.90
8338;DHT22;4206;48.634;9.516;2022-09-09T09:37:29;22.10;99.90
8338;DHT22;4206;48.634;9.516;2022-09-09T09:39:55;22.30;99.90
8338;DHT22;4206;48.634;9.516;2022-09-09T09:42:22;23.10;99.90
8338;DHT22;4206;48.634;9.516;2022-09-09T09:44:47;23.40;99.90
8338;DHT22;4206;48.634;9.516;2022-09-09T09:47:18;22.90;99.90
8338;DHT22;4206;48.634;9.516;2022-09-09T09:49:53;23.30;99.90
8338;DHT22;4206;48.634;9.516;2022-09-09T09:52:26;23.80;99.90
8338;DHT22;4206;48.634;9.516;2022-09-09T09:54:53;24.30;99.90
8338;DHT22;4206;48.634;9.516;2022-09-09T09:57:24;25.50;99.90
8338;DHT22;4206;48.634;9.516;2022-09-09T10:05:24;27.80;99.90
8338;DHT22;4206;48.634;9.516;2022-09-09T10:08:14;28.90;99.90
8338;DHT22;4206;48.634;9.516;2022-09-09T10:18:36;31.50;97.90
8338;DHT22;4206;48.634;9.516;2022-09-09T10:26:51;29.80;99.90
8338;DHT22;4206;48.634;9.516;2022-09-09T10:34:56;28.40;95.20
8338;DHT22;4206;48.634;9.516;2022-09-09T10:42:31;27.40;94.70
8338;DHT22;4206;48.634;9.516;2022-09-09T10:50:14;26.00;97.20
8338;DHT22;4206;48.634;9.516;2022-09-09T10:53:02;26.40;98.10
8338;DHT22;4206;48.634;9.516;2022-09-09T10:55:37;26.80;97.80
8338;DHT22;4206;48.634;9.516;2022-09-09T10:58:05;27.70;95.40
8338;DHT22;4206;48.634;9.516;2022-09-09T11:00:50;28.00;95.00
8338;DHT22;4206;48.634;9.516;2022-09-09T11:03:22;27.50;94.00
8338;DHT22;4206;48.634;9.516;2022-09-09T11:05:53;27.20;95.10
8338;DHT22;4206;48.634;9.516;2022-09-09T11:08:25;25.80;95.10
8338;DHT22;4206;48.634;9.516;2022-09-09T11:11:09;24.80;96.50
8338;DHT22;4206;48.634;9.516;2022-09-09T11:13:43;25.00;98.00
8338;DHT22;4206;48.634;9.516;2022-09-09T11:16:26;26.50;93.60
8338;DHT22;4206;48.634;9.516;2022-09-09T11:19:02;25.90;93.50
8338;DHT22;4206;48.634;9.516;2022-09-09T11:21:32;25.70;94.70
8338;DHT22;4206;48.634;9.516;2022-09-09T11:24:03;26.10;94.60
8338;DHT22;4206;48.634;9.516;2022-09-09T11:26:44;26.80;94.40
8338;DHT22;4206;48.634;9.516;2022-09-09T11:34:44;25.90;93.20
8338;DHT22;4206;48.634;9.516;2022-09-09T11:39:58;26.30;92.40
8338;DHT22;4206;48.634;9.516;2022-09-09T11:42:28;25.90;92.60
8338;DHT22;4206;48.634;9.516;2022-09-09T11:44:53;24.90;93.00
8338;DHT22;4206;48.634;9.516;2022-09-09T11:47:25;25.00;92.20
8338;DHT22;4206;48.634;9.516;2022-09-09T11:49:54;24.60;93.10
8338;DHT22;4206;48.634;9.516;2022-09-09T12:00:32;24.20;97.80
8338;DHT22;4206;48.634;9.516;2022-09-09T12:02:58;23.40;99.00
8338;DHT22;4206;48.634;9.516;2022-09-09T12:05:42;23.20;99.90
8338;DHT22;4206;48.634;9.516;2022-09-09T12:08:15;23.50;99.90
8338;DHT22;4206;48.634;9.516;2022-09-09T12:10:55;23.00;99.90
8338;DHT22;4206;48.634;9.516;2022-09-09T12:13:24;22.70;99.90
8338;DHT22;4206;48.634;9.516;2022-09-09T12:15:55;22.50;99.90
8338;DHT22;4206;48.634;9.516;2022-09-09T12:18:32;22.20;99.90
8338;DHT22;4206;48.634;9.516;2022-09-09T12:23:53;23.10;99.90
8338;DHT22;4206;48.634;9.516;2022-09-09T12:29:08;24.70;99.90
8338;DHT22;4206;48.634;9.516;2022-09-09T12:37:03;26.80;98.80
8338;DHT22;4206;48.634;9.516;2022-09-09T12:39:34;27.70;98.10
8338;DHT22;4206;48.634;9.516;2022-09-09T12:42:02;28.60;96.50
8338;DHT22;4206;48.634;9.516;2022-09-09T12:44:30;28.90;95.90
8338;DHT22;4206;48.634;9.516;2022-09-09T12:46:58;28.70;95.70
8338;DHT22;4206;48.634;9.516;2022-09-09T12:51:52;29.00;95.30
8338;DHT22;4206;48.634;9.516;2022-09-09T12:54:19;29.70;94.90
8338;DHT22;4206;48.634;9.516;2022-09-09T12:56:46;29.60;93.30
8338;DHT22;4206;48.634;9.516;2022-09-09T13:47:00;31.30;86.70
8338;DHT22;4206;48.634;9.516;2022-09-09T13:49:28;30.70;84.80
8338;DHT22;4206;48.634;9.516;2022-09-09T13:52:04;30.20;85.70
8338;DHT22;4206;48.634;9.516;2022-09-09T13:54:31;29.80;82.20
8338;DHT22;4206;48.634;9.516;2022-09-09T13:56:57;29.20;83.80
8338;DHT22;4206;48.634;9.516;2022-09-09T13:59:22;28.40;82.70
8338;DHT22;4206;48.634;9.516;2022-09-09T14:01:50;28.00;84.80
8338;DHT22;4206;48.634;9.516;2022-09-09T14:04:18;28.50;83.00
8338;DHT22;4206;48.634;9.516;2022-09-09T14:06:47;28.80;83.40
8338;DHT22;4206;48.634;9.516;2022-09-09T14:09:15;29.60;82.50
8338;DHT22;4206;48.634;9.516;2022-09-09T14:11:42;30.40;83.10
8338;DHT22;4206;48.634;9.516;2022-09-09T14:14:08;30.40;84.30
8338;DHT22;4206;48.634;9.516;2022-09-09T14:16:34;30.50;85.00
8338;DHT22;4206;48.634;9.516;2022-09-09T14:19:00;29.60;82.80
8338;DHT22;4206;48.634;9.516;2022-09-09T14:21:26;28.80;83.40
8338;DHT22;4206;48.634;9.516;2022-09-09T14:23:52;28.70;83.90
8338;DHT22;4206;48.634;9.516;2022-09-09T14:26:19;29.40;84.90
8338;DHT22;4206;48.634;9.516;2022-09-09T14:28:47;29.80;84.80
8338;DHT22;4206;48.634;9.516;2022-09-09T14:31:13;28.50;82.80
8338;DHT22;4206;48.634;9.516;2022-09-09T14:33:40;28.20;85.00
8338;DHT22;4206;48.634;9.516;2022-09-09T14:36:06;27.40;85.00
8338;DHT22;4206;48.634;9.516;2022-09-09T14:38:34;27.50;84.40
8338;DHT22;4206;48.634;9.516;2022-09-09T14:41:05;27.10;87.60
8338;DHT22;4206;48.634;9.516;2022-09-09T14:43:31;27.20;88.00
8338;DHT22;4206;48.634;9.516;2022-09-09T14:46:04;27.20;86.50
8338;DHT22;4206;48.634;9.516;2022-09-09T14:48:31;27.00;87.20
8338;DHT22;4206;48.634;9.516;2022-09-09T14:50:56;26.50;86.50
8338;DHT22;4206;48.634;9.516;2022-09-09T14:53:22;25.80;88.40
8338;DHT22;4206;48.634;9.516;2022-09-09T14:55:48;26.00;88.40
8338;DHT22;4206;48.634;9.516;2022-09-09T14:58:13;25.70;87.20
8338;DHT22;4206;48.634;9.516;2022-09-09T15:00:39;25.20;88.40
8338;DHT22;4206;48.634;9.516;2022-09-09T15:03:04;24.40;90.10
8338;DHT22;4206;48.634;9.516;2022-09-09T15:05:31;24.10;90.70
8338;DHT22;4206;48.634;9.516;2022-09-09T15:07:57;24.10;91.50
8338;DHT22;4206;48.634;9.516;2022-09-09T15:10:24;24.00;92.00
8338;DHT22;4206;48.634;9.516;2022-09-09T15:12:49;23.90;91.90
8338;DHT22;4206;48.634;9.516;2022-09-09T15:15:15;24.10;92.60
8338;DHT22;4206;48.634;9.516;2022-09-09T15:17:41;24.10;92.10
8338;DHT22;4206;48.634;9.516;2022-09-09T15:20:07;24.40;91.80
8338;DHT22;4206;48.634;9.516;2022-09-09T15:22:33;24.60;91.90
8338;DHT22;4206;48.634;9.516;2022-09-09T15:24:59;24.30;90.60
8338;DHT22;4206;48.634;9.516;2022-09-09T15:27:24;24.30;90.00
8338;DHT22;4206;48.634;9.516;2022-09-09T15:29:50;23.60;90.00
8338;DHT22;4206;48.634;9.516;2022-09-09T15:32:17;23.20;91.40
8338;DHT22;4206;48.634;9.516;2022-09-09T15:34:43;23.00;91.60
8338;DHT22;4206;48.634;9.516;2022-09-09T15:37:10;22.60;92.10
8338;DHT22;4206;48.634;9.516;2022-09-09T15:39:39;22.40;92.30
8338;DHT22;4206;48.634;9.516;2022-09-09T15:42:05;22.20;92.00
8338;DHT22;4206;48.634;9.516;2022-09-09T15:44:39;22.00;92.50
8338;DHT22;4206;48.634;9.516;2022-09-09T15:47:05;21.80;92.90
8338;DHT22;4206;48.634;9.516;2022-09-09T15:49:30;21.80;92.90
8338;DHT22;4206;48.634;9.516;2022-09-09T15:51:58;21.80;93.80
8338;DHT22;4206;48.634;9.516;2022-09-09T15:54:25;22.00;93.90
8338;DHT22;4206;48.634;9.516;2022-09-09T15:56:54;22.30;93.50
8338;DHT22;4206;48.634;9.516;2022-09-09T15:59:22;22.30;93.80
8338;DHT22;4206;48.634;9.516;2022-09-09T16:01:48;22.20;94.60
8338;DHT22;4206;48.634;9.516;2022-09-09T16:04:17;22.10;94.00
8338;DHT22;4206;48.634;9.516;2022-09-09T16:06:49;21.90;93.90
8338;DHT22;4206;48.634;9.516;2022-09-09T16:09:15;21.70;94.40
8338;DHT22;4206;48.634;9.516;2022-09-09T16:11:41;21.50;94.60
8338;DHT22;4206;48.634;9.516;2022-09-09T16:14:06;21.50;94.70
8338;DHT22;4206;48.634;9.516;2022-09-09T16:16:33;21.30;94.70
8338;DHT22;4206;48.634;9.516;2022-09-09T16:19:03;21.30;94.70
8338;DHT22;4206;48.634;9.516;2022-09-09T16:21:33;21.10;94.80
8338;DHT22;4206;48.634;9.516;2022-09-09T16:24:01;21.00;95.50
8338;DHT22;4206;48.634;9.516;2022-09-09T16:26:31;21.00;95.00
8338;DHT22;4206;48.634;9.516;2022-09-09T16:28:57;20.90;95.10
8338;DHT22;4206;48.634;9.516;2022-09-09T16:31:24;20.80;95.20
8338;DHT22;4206;48.634;9.516;2022-09-09T16:33:51;20.70;95.90
8338;DHT22;4206;48.634;9.516;2022-09-09T16:36:19;20.80;95.90
8338;DHT22;4206;48.634;9.516;2022-09-09T16:38:45;20.70;96.20
8338;DHT22;4206;48.634;9.516;2022-09-09T16:41:12;20.70;96.60
8338;DHT22;4206;48.634;9.516;2022-09-09T16:43:38;20.70;96.40
8338;DHT22;4206;48.634;9.516;2022-09-09T16:46:16;20.90;96.20
8338;DHT22;4206;48.634;9.516;2022-09-09T16:48:43;20.90;97.60
8338;DHT22;4206;48.634;9.516;2022-09-09T16:51:14;20.80;97.30
8338;DHT22;4206;48.634;9.516;2022-09-09T16:53:41;20.80;96.80
8338;DHT22;4206;48.634;9.516;2022-09-09T16:56:10;20.80;96.60
8338;DHT22;4206;48.634;9.516;2022-09-09T16:58:36;20.80;96.10
8338;DHT22;4206;48.634;9.516;2022-09-09T17:01:04;20.70;95.70
8338;DHT22;4206;48.634;9.516;2022-09-09T17:03:31;20.50;94.50
8338;DHT22;4206;48.634;9.516;2022-09-09T17:05:58;20.50;94.70
8338;DHT22;4206;48.634;9.516;2022-09-09T17:08:28;20.50;95.50
8338;DHT22;4206;48.634;9.516;2022-09-09T17:10:54;20.40;95.30
8338;DHT22;4206;48.634;9.516;2022-09-09T17:13:20;20.40;95.40
8338;DHT22;4206;48.634;9.516;2022-09-09T17:15:46;20.30;96.30
8338;DHT22;4206;48.634;9.516;2022-09-09T17:18:12;20.10;96.00
8338;DHT22;4206;48.634;9.516;2022-09-09T17:20:40;20.10;96.10
8338;DHT22;4206;48.634;9.516;2022-09-09T17:23:07;19.90;96.50
8338;DHT22;4206;48.634;9.516;2022-09-09T17:25:33;19.80;96.80
8338;DHT22;4206;48.634;9.516;2022-09-09T17:28:00;19.70;96.90
8338;DHT22;4206;48.634;9.516;2022-09-09T17:30:27;19.70;97.50
8338;DHT22;4206;48.634;9.516;2022-09-09T17:32:52;19.60;97.90
8338;DHT22;4206;48.634;9.516;2022-09-09T17:35:18;19.50;98.30
8338;DHT22;4206;48.634;9.516;2022-09-09T17:37:44;19.40;98.30
8338;DHT22;4206;48.634;9.516;2022-09-09T17:40:11;19.30;98.70
8338;DHT22;4206;48.634;9.516;2022-09-09T17:42:36;19.20;98.30
8338;DHT22;4206;48.634;9.516;2022-09-09T17:45:03;19.10;99.00
8338;DHT22;4206;48.634;9.516;2022-09-09T17:47:29;19.10;98.90
8338;DHT22;4206;48.634;9.516;2022-09-09T17:49:56;19.00;99.90
8338;DHT22;4206;48.634;9.516;2022-09-09T17:52:22;18.90;99.90
8338;DHT22;4206;48.634;9.516;2022-09-09T17:54:48;18.80;99.90
8338;DHT22;4206;48.634;9.516;2022-09-09T17:57:15;18.70;99.90
8338;DHT22;4206;48.634;9.516;2022-09-09T17:59:42;18.70;99.90
8338;DHT22;4206;48.634;9.516;2022-09-09T18:02:10;18.60;99.90
8338;DHT22;4206;48.634;9.516;2022-09-09T18:04:36;18.60;99.90
8338;DHT22;4206;48.634;9.516;2022-09-09T18:07:03;18.50;99.90
8338;DHT22;4206;48.634;9.516;2022-09-09T18:09:29;18.50;99.90
8338;DHT22;4206;48.634;9.516;2022-09-09T18:11:57;18.40;99.90
8338;DHT22;4206;48.634;9.516;2022-09-09T18:14:26;18.40;99.90
8338;DHT22;4206;48.634;9.516;2022-09-09T18:16:52;18.30;99.90
8338;DHT22;4206;48.634;9.516;2022-09-09T18:19:22;18.20;99.90
8338;DHT22;4206;48.634;9.516;2022-09-09T18:21:48;18.20;99.90
8338;DHT22;4206;48.634;9.516;2022-09-09T18:24:15;18.20;99.90
8338;DHT22;4206;48.634;9.516;2022-09-09T18:26:42;18.20;99.90
8338;DHT22;4206;48.634;9.516;2022-09-09T18:29:11;18.10;99.90
8338;DHT22;4206;48.634;9.516;2022-09-09T18:31:38;18.00;99.90
8338;DHT22;4206;48.634;9.516;2022-09-09T18:34:06;18.00;99.90
8338;DHT22;4206;48.634;9.516;2022-09-09T18:36:38;17.90;99.90
8338;DHT22;4206;48.634;9.516;2022-09-09T18:39:05;17.90;99.90
8338;DHT22;4206;48.634;9.516;2022-09-09T18:41:34;17.80;99.90
8338;DHT22;4206;48.634;9.516;2022-09-09T18:44:02;17.80;99.90
8338;DHT22;4206;48.634;9.516;2022-09-09T18:46:31;17.70;99.90
8338;DHT22;4206;48.634;9.516;2022-09-09T18:48:57;17.70;99.90
8338;DHT22;4206;48.634;9.516;2022-09-09T18:51:25;17.70;99.90
8338;DHT22;4206;48.634;9.516;2022-09-09T18:53:54;17.70;99.90
8338;DHT22;4206;48.634;9.516;2022-09-09T18:56:21;17.60;99.90
8338;DHT22;4206;48.634;9.516;2022-09-09T18:58:52;17.50;99.90
8338;DHT22;4206;48.634;9.516;2022-09-09T19:01:18;17.40;99.90
8338;DHT22;4206;48.634;9.516;2022-09-09T19:03:44;17.40;99.90
8338;DHT22;4206;48.634;9.516;2022-09-09T19:06:12;17.30;99.90
8338;DHT22;4206;48.634;9.516;2022-09-09T19:08:40;17.30;99.90